Terminal Aerodrome Forecast
Issued by NWS Denver/Boulder, CO

Home | Current Version | Previous Version | Text Only | Print | Product List | Glossary On
Versions: 1 2 3 4 5 6 7 8 9 10 11 12 13 14 15 16 17 18 19 20 21 22 23 24 25 26 27 28 29 30 31 32 33 34 35 36 37
000
FTUS45 KBOU 221120
TAFDEN
TAF
KDEN 221120Z 2212/2318 28013G21KT P6SM SCT120 BKN200
     FM221330 30009KT P6SM SCT120
     FM221700 03013G21KT P6SM SCT090 BKN200
     FM222200 06015G22KT P6SM SCT090 BKN200 PROB30 2222/2303
      VRB15G30KT -TSRA BKN060CB
     FM230300 08011KT P6SM VCSH SCT060 BKN090
     FM230600 05009KT P6SM VCSH SCT025 OVC060
      TEMPO 2306/2308 BKN025
     FM230800 03011KT P6SM VCSH BKN020 OVC040
     FM231600 11009KT P6SM SCT025 BKN060=

USA.gov is the U.S. government's official web portal to all federal, state and local government web resources and services.